Time;durP1;ratioP1;P1;durP2;ratioP2;P2;SDS_P1;SDS_P2;PMS_P1;PMS_P2;Temp;Humidity;BMP_temperature;BMP_pressure;BME280_temperature;BME280_humidity;BME280_pressure;Samples;Min_cycle;Max_cycle;Signal;HPM_P1;HPM_P2
2023/11/13 00:02:13;;;;;;;0.80;0.80;;;5.10;99.90;;;;;;5050196;28;20399;-61
2023/11/13 00:04:40;;;;;;;0.35;0.35;;;5.00;99.90;;;;;;5052650;28;20047;-60
2023/11/13 00:07:08;;;;;;;1.77;1.02;;;5.00;99.90;;;;;;5014936;28;1115692;-60
2023/11/13 00:09:35;;;;;;;0.73;0.63;;;5.00;99.90;;;;;;5055837;28;20136;-62
2023/11/13 00:12:03;;;;;;;0.57;0.50;;;5.00;99.90;;;;;;5055689;28;20118;-61
2023/11/13 00:14:30;;;;;;;0.88;0.57;;;5.00;99.90;;;;;;5052503;28;20124;-62
2023/11/13 00:16:57;;;;;;;3.03;0.40;;;5.00;99.90;;;;;;5060235;28;20509;-66
2023/11/13 00:19:24;;;;;;;0.85;0.63;;;5.00;99.90;;;;;;5046382;28;20044;-62
2023/11/13 00:21:52;;;;;;;0.85;0.63;;;5.00;99.90;;;;;;5056587;28;20033;-67
2023/11/13 00:24:19;;;;;;;0.80;0.68;;;5.00;99.90;;;;;;5050222;28;20057;-62
2023/11/13 00:26:47;;;;;;;0.80;0.70;;;5.00;99.90;;;;;;5034189;28;20047;-60
2023/11/13 00:29:15;;;;;;;0.90;0.35;;;5.00;99.90;;;;;;5038166;28;20488;-60
2023/11/13 00:31:44;;;;;;;1.67;0.40;;;5.00;99.90;;;;;;5050195;28;20061;-63
2023/11/13 00:34:11;;;;;;;1.15;0.50;;;5.00;99.90;;;;;;5054323;28;20380;-61
2023/11/13 00:36:38;;;;;;;1.45;0.88;;;5.00;99.90;;;;;;5056215;28;20037;-62
2023/11/13 00:39:08;;;;;;;0.68;0.60;;;5.00;99.90;;;;;;5048481;28;20537;-62
2023/11/13 00:41:37;;;;;;;;;;;5.00;99.90;;;;;;5054545;28;20056;-61
2023/11/13 00:44:06;;;;;;;4.60;0.70;;;5.00;99.90;;;;;;5049303;28;19921;-62
2023/11/13 00:46:33;;;;;;;1.38;0.40;;;5.10;99.90;;;;;;5056378;28;20429;-61
2023/11/13 00:49:00;;;;;;;0.45;0.45;;;5.10;99.90;;;;;;5047177;28;20409;-65
2023/11/13 00:51:28;;;;;;;0.60;0.50;;;5.00;99.90;;;;;;5045295;28;20125;-62
2023/11/13 00:53:55;;;;;;;1.65;0.70;;;5.00;99.90;;;;;;5034435;28;20107;-61
2023/11/13 00:56:22;;;;;;;0.63;0.38;;;5.00;99.90;;;;;;5036307;28;22294;-70
2023/11/13 00:58:49;;;;;;;1.85;0.60;;;5.00;99.90;;;;;;5021712;28;20663;-62
2023/11/13 01:01:16;;;;;;;2.90;1.13;;;5.00;99.90;;;;;;5055173;28;20037;-61
2023/11/13 01:03:44;;;;;;;2.08;0.70;;;5.00;99.90;;;;;;5034717;28;20495;-64
2023/11/13 01:06:16;;;;;;;1.05;0.80;;;5.10;99.90;;;;;;5048196;28;20131;-61
2023/11/13 01:08:43;;;;;;;1.45;0.55;;;5.10;99.90;;;;;;5049274;28;20048;-61
2023/11/13 01:11:11;;;;;;;1.02;0.73;;;5.10;99.90;;;;;;5017861;28;20107;-64
2023/11/13 01:13:38;;;;;;;1.02;1.00;;;5.10;99.90;;;;;;5056531;28;20041;-61
2023/11/13 01:16:06;;;;;;;1.35;1.02;;;5.10;99.90;;;;;;5044003;28;20045;-61
2023/11/13 01:18:33;;;;;;;1.75;1.63;;;5.00;99.90;;;;;;5044848;28;20561;-70
2023/11/13 01:21:00;;;;;;;1.30;0.93;;;5.00;99.90;;;;;;5056899;28;20392;-62
2023/11/13 01:23:27;;;;;;;2.33;1.65;;;5.00;99.90;;;;;;5051437;28;20045;-65
2023/11/13 01:25:54;;;;;;;1.30;1.20;;;5.00;99.90;;;;;;5049731;28;20116;-62
2023/11/13 01:28:21;;;;;;;1.80;1.20;;;5.00;99.90;;;;;;5039858;28;20455;-65
2023/11/13 01:30:48;;;;;;;0.90;0.90;;;5.00;99.90;;;;;;5043296;28;20049;-64
2023/11/13 01:33:15;;;;;;;2.00;1.50;;;5.00;99.90;;;;;;5051308;28;20123;-62
2023/11/13 01:35:42;;;;;;;1.83;1.42;;;5.00;99.90;;;;;;5015625;28;20360;-61
2023/11/13 01:38:09;;;;;;;2.05;1.02;;;5.00;99.90;;;;;;5029971;28;20049;-65
2023/11/13 01:40:40;;;;;;;2.47;1.00;;;5.00;99.90;;;;;;5049999;28;20410;-64
2023/11/13 01:43:19;;;;;;;1.25;1.23;;;4.90;99.90;;;;;;5051932;28;20511;-62
2023/11/13 01:45:51;;;;;;;1.92;1.42;;;4.90;99.90;;;;;;5044532;28;20055;-61
2023/11/13 01:48:19;;;;;;;1.10;1.00;;;4.90;99.90;;;;;;5051839;28;20087;-63
2023/11/13 01:50:48;;;;;;;1.75;1.23;;;4.90;99.90;;;;;;5030140;28;20037;-61
2023/11/13 01:53:19;;;;;;;1.75;1.27;;;4.90;99.90;;;;;;5047415;28;20033;-61
2023/11/13 01:55:46;;;;;;;4.90;1.30;;;4.90;99.90;;;;;;5049559;28;20095;-63
2023/11/13 01:58:14;;;;;;;3.05;0.90;;;4.90;99.90;;;;;;5034270;28;20509;-60
2023/11/13 02:00:42;;;;;;;1.55;1.45;;;4.80;99.90;;;;;;5036530;28;20078;-67
2023/11/13 02:03:10;;;;;;;1.42;1.33;;;4.90;99.90;;;;;;5031507;28;20041;-62
2023/11/13 02:05:38;;;;;;;2.05;0.90;;;4.90;99.90;;;;;;5031685;28;20048;-62
2023/11/13 02:08:05;;;;;;;2.33;1.35;;;4.90;99.90;;;;;;5052929;28;20041;-60
2023/11/13 02:10:35;;;;;;;2.17;0.68;;;4.90;99.90;;;;;;5031728;28;20063;-61
2023/11/13 02:13:04;;;;;;;1.02;0.60;;;4.80;99.90;;;;;;5052446;28;20525;-61
2023/11/13 02:15:31;;;;;;;0.90;0.32;;;4.80;99.90;;;;;;5049840;28;20033;-63
2023/11/13 02:18:02;;;;;;;1.48;0.43;;;4.80;99.90;;;;;;5047093;28;20055;-61
2023/11/13 02:20:34;;;;;;;1.35;0.30;;;4.80;99.90;;;;;;5052030;28;20076;-63
2023/11/13 02:23:01;;;;;;;0.40;0.40;;;4.80;99.90;;;;;;5045642;28;20041;-62
2023/11/13 02:25:30;;;;;;;0.40;0.40;;;4.90;99.90;;;;;;5037106;28;20522;-60
2023/11/13 02:28:04;;;;;;;1.35;0.73;;;4.90;99.90;;;;;;5050078;28;20122;-61
2023/11/13 02:30:38;;;;;;;1.05;0.82;;;4.80;99.90;;;;;;5047776;28;20152;-61
2023/11/13 02:33:05;;;;;;;2.85;0.70;;;4.80;99.90;;;;;;5050894;28;20504;-61
2023/11/13 02:35:33;;;;;;;2.92;1.58;;;4.80;99.90;;;;;;5030264;28;20048;-61
2023/11/13 02:38:00;;;;;;;2.10;1.10;;;4.80;99.90;;;;;;5047694;28;20055;-61
2023/11/13 02:40:27;;;;;;;0.70;0.70;;;4.80;99.90;;;;;;5051164;28;20375;-66
2023/11/13 02:42:55;;;;;;;0.77;0.60;;;4.80;99.90;;;;;;5054107;28;20609;-62
2023/11/13 02:45:26;;;;;;;0.93;0.40;;;4.80;99.90;;;;;;5055348;28;20033;-64
2023/11/13 02:47:53;;;;;;;0.77;0.75;;;4.70;99.90;;;;;;5052890;28;20049;-69
2023/11/13 02:50:21;;;;;;;1.05;0.93;;;4.80;99.90;;;;;;5056087;28;20067;-66
2023/11/13 02:52:48;;;;;;;5.05;1.05;;;4.80;99.90;;;;;;5052222;28;20124;-61
2023/11/13 02:55:16;;;;;;;1.67;1.13;;;4.80;99.90;;;;;;5052695;28;20044;-62
2023/11/13 02:57:43;;;;;;;1.95;0.65;;;4.80;99.90;;;;;;5061152;28;20056;-64
2023/11/13 03:00:11;;;;;;;0.55;0.55;;;4.80;99.90;;;;;;5049028;28;20064;-61
2023/11/13 03:02:38;;;;;;;0.35;0.35;;;4.70;99.90;;;;;;5049853;28;20037;-61
2023/11/13 03:05:06;;;;;;;1.05;0.40;;;4.80;99.90;;;;;;5060490;28;20045;-61
2023/11/13 03:07:34;;;;;;;0.30;0.30;;;4.70;99.90;;;;;;5046746;28;20135;-61
2023/11/13 03:10:01;;;;;;;2.05;0.50;;;4.70;99.90;;;;;;5033040;28;20072;-64
2023/11/13 03:12:28;;;;;;;1.48;0.63;;;4.70;99.90;;;;;;5034240;28;20044;-61
2023/11/13 03:14:55;;;;;;;2.42;0.98;;;4.80;99.90;;;;;;5050970;28;20049;-61
2023/11/13 03:17:22;;;;;;;2.55;0.85;;;4.70;99.90;;;;;;5053484;28;20045;-63
2023/11/13 03:19:49;;;;;;;0.47;0.47;;;4.70;99.90;;;;;;5053053;28;20049;-63
2023/11/13 03:22:16;;;;;;;3.42;1.15;;;4.70;99.90;;;;;;5040775;28;20052;-60
2023/11/13 03:24:44;;;;;;;2.08;1.13;;;4.70;99.90;;;;;;5056759;28;20136;-61
2023/11/13 03:27:11;;;;;;;1.17;0.75;;;4.70;99.90;;;;;;5052000;28;20063;-61
2023/11/13 03:29:39;;;;;;;1.38;0.70;;;4.70;99.90;;;;;;5049205;28;20397;-64
2023/11/13 03:32:06;;;;;;;3.63;0.68;;;4.70;99.90;;;;;;5019762;28;20045;-60
2023/11/13 03:34:33;;;;;;;0.40;0.38;;;4.60;99.90;;;;;;5046266;28;20041;-62
2023/11/13 03:37:01;;;;;;;0.45;0.40;;;4.60;99.90;;;;;;5053144;28;20059;-61
2023/11/13 03:39:28;;;;;;;0.50;0.50;;;4.60;99.90;;;;;;5030341;28;20474;-61
2023/11/13 03:41:55;;;;;;;1.00;0.65;;;4.50;99.90;;;;;;5049688;28;20048;-61
2023/11/13 03:44:22;;;;;;;1.60;0.60;;;4.60;99.90;;;;;;5039300;28;20091;-67
2023/11/13 03:46:51;;;;;;;0.60;0.52;;;4.60;99.90;;;;;;5049260;28;20427;-61
2023/11/13 03:49:18;;;;;;;1.13;0.70;;;4.60;99.90;;;;;;5053291;28;20131;-62
2023/11/13 03:51:46;;;;;;;2.20;1.00;;;4.60;99.90;;;;;;5033385;28;20044;-60
2023/11/13 03:54:13;;;;;;;1.35;0.68;;;4.60;99.90;;;;;;5056119;28;20387;-65
2023/11/13 03:56:41;;;;;;;1.85;0.90;;;4.60;99.90;;;;;;5039678;28;20068;-62
2023/11/13 03:59:08;;;;;;;1.10;1.00;;;4.60;99.90;;;;;;5056123;28;20048;-60
2023/11/13 04:01:34;;;;;;;1.98;1.40;;;4.60;99.90;;;;;;5050941;28;20063;-61
2023/11/13 04:04:02;;;;;;;3.65;1.60;;;4.60;99.90;;;;;;5055882;28;20047;-62
2023/11/13 04:06:29;;;;;;;1.58;1.27;;;4.60;99.90;;;;;;5052309;28;20046;-61
2023/11/13 04:08:56;;;;;;;1.15;1.10;;;4.60;99.90;;;;;;5057118;28;20037;-61
2023/11/13 04:11:24;;;;;;;1.90;0.90;;;4.60;99.90;;;;;;5052140;28;20079;-65
2023/11/13 04:13:51;;;;;;;1.48;1.38;;;4.60;99.90;;;;;;5047437;28;20411;-61
2023/11/13 04:16:18;;;;;;;1.40;1.20;;;4.60;99.90;;;;;;5055715;28;20041;-60
2023/11/13 04:18:45;;;;;;;1.20;1.10;;;4.60;99.90;;;;;;5046814;28;20033;-62
2023/11/13 04:21:13;;;;;;;1.58;1.33;;;4.60;99.90;;;;;;5053486;28;20032;-62
2023/11/13 04:23:40;;;;;;;1.50;1.35;;;4.60;99.90;;;;;;5051663;28;20120;-61
2023/11/13 04:26:08;;;;;;;2.22;0.85;;;4.60;99.90;;;;;;5050507;28;20037;-61
2023/11/13 04:28:35;;;;;;;1.08;0.90;;;4.60;99.90;;;;;;5054804;28;20048;-61
2023/11/13 04:31:08;;;;;;;1.33;1.02;;;4.60;99.90;;;;;;5049885;28;20041;-61
2023/11/13 04:33:35;;;;;;;5.25;1.20;;;4.60;99.90;;;;;;5056723;28;20720;-64
2023/11/13 04:36:03;;;;;;;1.65;1.55;;;4.60;99.90;;;;;;5053096;28;20112;-62
2023/11/13 04:38:30;;;;;;;0.40;0.32;;;4.60;99.90;;;;;;5051954;28;20119;-62
2023/11/13 04:40:57;;;;;;;0.88;0.80;;;4.60;99.90;;;;;;5056137;28;20052;-64
2023/11/13 04:43:26;;;;;;;1.05;0.95;;;4.60;99.90;;;;;;5053540;28;20080;-65
2023/11/13 04:45:53;;;;;;;1.25;1.15;;;4.60;99.90;;;;;;5050104;28;20048;-62
2023/11/13 04:48:20;;;;;;;0.88;0.82;;;4.60;99.90;;;;;;5032253;28;20032;-66
2023/11/13 04:50:48;;;;;;;1.23;1.00;;;4.60;99.90;;;;;;5050219;28;20052;-61
2023/11/13 04:53:15;;;;;;;1.35;0.80;;;4.60;99.90;;;;;;5050462;28;20041;-62
2023/11/13 04:55:42;;;;;;;1.65;1.17;;;4.60;99.90;;;;;;5050830;28;20048;-61
2023/11/13 04:58:09;;;;;;;1.88;1.30;;;4.60;99.90;;;;;;5051353;28;20091;-64
2023/11/13 05:00:36;;;;;;;1.40;1.13;;;4.60;99.90;;;;;;5045661;28;20049;-60
2023/11/13 05:03:04;;;;;;;0.82;0.82;;;4.50;99.90;;;;;;5055778;28;20052;-60
2023/11/13 05:05:36;;;;;;;1.30;1.00;;;4.50;99.90;;;;;;5054195;28;20044;-63
2023/11/13 05:08:04;;;;;;;3.92;1.30;;;4.50;99.90;;;;;;5053733;28;20097;-62
2023/11/13 05:10:32;;;;;;;3.03;1.40;;;4.50;99.90;;;;;;5049850;28;20055;-63
2023/11/13 05:12:59;;;;;;;2.25;1.27;;;4.50;99.90;;;;;;5050538;28;20382;-62
2023/11/13 05:15:26;;;;;;;1.88;1.77;;;4.50;99.90;;;;;;5046612;28;20028;-61
2023/11/13 05:17:54;;;;;;;1.42;1.30;;;4.50;99.90;;;;;;5047854;28;20049;-64
2023/11/13 05:20:21;;;;;;;2.90;1.98;;;4.50;99.90;;;;;;5051084;28;20683;-64
2023/11/13 05:22:48;;;;;;;2.28;1.33;;;4.50;99.90;;;;;;5055164;28;20036;-60
2023/11/13 05:25:15;;;;;;;4.63;1.50;;;4.50;99.90;;;;;;5055649;28;20090;-60
2023/11/13 05:27:42;;;;;;;4.53;1.55;;;4.50;99.90;;;;;;5048504;28;20745;-62
2023/11/13 05:30:12;;;;;;;0.98;0.90;;;4.50;99.90;;;;;;5049063;28;20061;-60
2023/11/13 05:32:39;;;;;;;3.07;1.17;;;4.50;99.90;;;;;;5050569;28;21330;-61
2023/11/13 05:35:06;;;;;;;1.95;1.17;;;4.50;99.90;;;;;;5048865;28;20044;-61
2023/11/13 05:37:33;;;;;;;2.30;1.42;;;4.50;99.90;;;;;;5046922;28;20041;-62
2023/11/13 05:40:00;;;;;;;1.30;1.15;;;4.50;99.90;;;;;;5055042;28;20032;-60
2023/11/13 05:42:28;;;;;;;1.00;0.90;;;4.50;99.90;;;;;;5049906;28;20045;-61
2023/11/13 05:44:54;;;;;;;2.60;0.93;;;4.50;99.90;;;;;;5048959;28;20041;-61
2023/11/13 05:47:21;;;;;;;3.22;1.80;;;4.50;99.90;;;;;;5051058;28;20041;-66
2023/11/13 05:49:48;;;;;;;1.05;1.05;;;4.50;99.90;;;;;;5048294;28;20034;-69
2023/11/13 05:52:17;;;;;;;2.65;1.17;;;4.50;99.90;;;;;;5048096;28;20116;-61
2023/11/13 05:54:44;;;;;;;1.70;1.00;;;4.50;99.90;;;;;;5052728;28;20041;-70
2023/11/13 05:57:11;;;;;;;3.60;1.45;;;4.40;99.90;;;;;;5050006;28;20052;-61
2023/11/13 05:59:38;;;;;;;5.45;1.67;;;4.40;99.90;;;;;;5047022;28;20045;-60
2023/11/13 06:02:05;;;;;;;2.13;1.40;;;4.40;99.90;;;;;;5046352;28;20049;-63
2023/11/13 06:04:35;;;;;;;1.25;0.90;;;4.50;99.90;;;;;;5047958;28;20041;-61
2023/11/13 06:07:03;;;;;;;4.22;1.60;;;4.50;99.90;;;;;;5055016;28;20057;-60
2023/11/13 06:09:30;;;;;;;2.05;1.40;;;4.40;99.90;;;;;;5050849;28;20033;-61
2023/11/13 06:11:57;;;;;;;1.25;0.98;;;4.50;99.90;;;;;;5050492;28;20099;-63
2023/11/13 06:14:24;;;;;;;1.15;0.88;;;4.50;99.90;;;;;;5052710;28;20044;-64
2023/11/13 06:16:51;;;;;;;4.45;0.90;;;4.50;99.90;;;;;;5046298;28;20488;-61
2023/11/13 06:19:18;;;;;;;0.70;0.70;;;4.40;99.90;;;;;;5059266;28;20045;-60
2023/11/13 06:21:45;;;;;;;1.98;0.52;;;4.50;99.90;;;;;;5054322;28;20107;-60
2023/11/13 06:24:12;;;;;;;0.73;0.70;;;4.40;99.90;;;;;;5036629;28;20426;-60
2023/11/13 06:26:39;;;;;;;3.38;2.55;;;4.40;99.90;;;;;;5059105;28;20044;-60
2023/11/13 06:29:06;;;;;;;1.73;0.93;;;4.40;99.90;;;;;;5049609;28;20087;-64
2023/11/13 06:31:34;;;;;;;4.20;0.93;;;4.40;99.90;;;;;;5051713;28;20033;-61
2023/11/13 06:34:02;;;;;;;0.80;0.80;;;4.30;99.90;;;;;;5052293;28;20037;-60
2023/11/13 06:36:31;;;;;;;1.02;0.70;;;4.30;99.90;;;;;;5050287;28;20498;-61
2023/11/13 06:38:58;;;;;;;0.85;0.65;;;4.30;99.90;;;;;;5053710;28;20048;-61
2023/11/13 06:41:25;;;;;;;2.25;0.40;;;4.20;99.90;;;;;;5055053;28;20041;-64
2023/11/13 06:43:52;;;;;;;0.70;0.70;;;4.20;99.90;;;;;;5052377;28;20051;-60
2023/11/13 06:46:21;;;;;;;1.65;0.95;;;4.20;99.90;;;;;;5053842;28;20072;-61
2023/11/13 06:48:49;;;;;;;3.33;0.70;;;4.20;99.90;;;;;;5052011;28;20758;-63
2023/11/13 06:51:16;;;;;;;0.38;0.38;;;4.10;99.90;;;;;;5051262;28;20056;-60
2023/11/13 06:53:43;;;;;;;1.08;0.65;;;4.10;99.90;;;;;;5055427;28;20049;-60
2023/11/13 06:56:10;;;;;;;2.03;0.73;;;4.00;99.90;;;;;;5055664;28;20051;-63
2023/11/13 06:58:37;;;;;;;0.80;0.50;;;4.10;99.90;;;;;;5053477;28;20071;-62
2023/11/13 07:01:04;;;;;;;0.50;0.50;;;4.10;99.90;;;;;;5052611;28;20045;-61
2023/11/13 07:03:32;;;;;;;1.83;0.57;;;4.00;99.90;;;;;;5051529;28;20041;-62
2023/11/13 07:06:00;;;;;;;4.43;0.50;;;4.00;99.90;;;;;;5054230;28;20045;-61
2023/11/13 07:08:27;;;;;;;7.05;1.15;;;3.90;99.90;;;;;;5054183;28;20041;-62
2023/11/13 07:10:54;;;;;;;1.35;0.60;;;3.90;99.90;;;;;;5054540;28;20487;-62
2023/11/13 07:13:21;;;;;;;1.00;0.85;;;4.00;99.90;;;;;;5053834;28;20445;-63
2023/11/13 07:15:48;;;;;;;1.20;1.10;;;4.00;99.90;;;;;;5051824;28;20080;-61
2023/11/13 07:18:15;;;;;;;3.67;1.52;;;4.00;99.90;;;;;;5051855;28;20110;-60
2023/11/13 07:20:45;;;;;;;0.75;0.73;;;3.90;99.90;;;;;;5048965;28;20045;-61
2023/11/13 07:23:16;;;;;;;0.63;0.50;;;3.90;99.90;;;;;;5047415;28;20045;-63
2023/11/13 07:25:44;;;;;;;2.38;0.80;;;3.90;99.90;;;;;;5055735;28;20048;-61
2023/11/13 07:28:15;;;;;;;0.95;0.60;;;4.00;99.90;;;;;;5049265;28;20036;-62
2023/11/13 07:30:43;;;;;;;1.30;0.90;;;4.00;99.90;;;;;;5054541;28;20048;-62
2023/11/13 07:33:10;;;;;;;0.93;0.43;;;4.00;99.90;;;;;;5051343;28;20036;-60
2023/11/13 07:35:39;;;;;;;2.80;1.00;;;4.00;99.90;;;;;;5047564;28;20045;-63
2023/11/13 07:38:07;;;;;;;6.28;1.20;;;4.00;99.90;;;;;;5057677;28;20057;-66
2023/11/13 07:40:35;;;;;;;1.35;1.08;;;4.00;99.90;;;;;;5049685;28;20052;-62
2023/11/13 07:43:03;;;;;;;2.90;0.70;;;4.00;99.90;;;;;;5051084;28;20384;-60
2023/11/13 07:45:30;;;;;;;1.35;0.90;;;4.00;99.90;;;;;;5055277;28;20037;-61
2023/11/13 07:47:57;;;;;;;0.65;0.57;;;4.00;99.90;;;;;;5049072;28;20112;-61
2023/11/13 07:50:27;;;;;;;3.03;1.25;;;4.00;99.90;;;;;;5057109;28;20049;-64
2023/11/13 07:52:54;;;;;;;7.23;0.60;;;4.00;99.90;;;;;;5050031;28;20028;-61
2023/11/13 07:55:22;;;;;;;10.60;1.48;;;4.00;99.90;;;;;;5052565;28;20342;-61
2023/11/13 07:57:50;;;;;;;3.95;1.58;;;4.00;99.90;;;;;;5049031;28;20064;-63
2023/11/13 08:00:23;;;;;;;1.70;0.80;;;4.00;99.90;;;;;;5049377;28;20495;-61
2023/11/13 08:02:51;;;;;;;1.30;1.20;;;4.00;99.90;;;;;;5055438;28;20048;-60
2023/11/13 08:05:18;;;;;;;1.20;1.10;;;4.00;99.90;;;;;;5054283;28;20041;-63
2023/11/13 08:07:49;;;;;;;0.85;0.43;;;4.00;99.90;;;;;;5049046;28;20029;-62
2023/11/13 08:10:17;;;;;;;1.75;0.60;;;4.00;99.90;;;;;;5050550;28;20116;-61
2023/11/13 08:12:49;;;;;;;0.73;0.73;;;4.00;99.90;;;;;;5051081;28;20068;-61
2023/11/13 08:15:16;;;;;;;2.13;0.93;;;4.00;99.90;;;;;;5053493;28;20707;-61
2023/11/13 08:17:45;;;;;;;0.85;0.85;;;4.00;99.90;;;;;;5052518;28;20048;-60
2023/11/13 08:20:15;;;;;;;1.55;0.88;;;4.00;99.90;;;;;;5053561;28;20052;-60
2023/11/13 08:22:45;;;;;;;1.30;1.20;;;4.00;99.90;;;;;;5054443;28;20053;-61
2023/11/13 08:25:13;;;;;;;1.60;1.10;;;4.00;99.90;;;;;;5050830;28;20037;-61
2023/11/13 08:27:41;;;;;;;1.17;1.02;;;4.00;99.90;;;;;;5045398;28;20041;-64
2023/11/13 08:30:09;;;;;;;2.55;0.88;;;4.00;99.90;;;;;;5050041;28;20041;-63
2023/11/13 08:32:36;;;;;;;1.58;0.93;;;4.00;99.90;;;;;;5049995;28;20044;-60
2023/11/13 08:35:11;;;;;;;0.73;0.65;;;4.00;99.90;;;;;;5057513;28;20106;-62
2023/11/13 08:37:47;;;;;;;1.13;0.95;;;4.00;99.90;;;;;;5051488;28;20044;-64
2023/11/13 08:40:19;;;;;;;1.00;0.77;;;3.90;99.90;;;;;;5046544;28;20080;-61
2023/11/13 08:42:46;;;;;;;1.42;0.75;;;3.90;99.90;;;;;;5050924;28;20055;-61
2023/11/13 08:45:17;;;;;;;1.15;0.63;;;3.90;99.90;;;;;;5051412;28;20043;-61
2023/11/13 08:47:45;;;;;;;2.85;1.05;;;3.90;99.90;;;;;;5050788;28;20056;-61
2023/11/13 08:50:12;;;;;;;1.15;1.05;;;3.90;99.90;;;;;;5050330;28;20460;-61
2023/11/13 08:52:43;;;;;;;1.40;1.10;;;3.80;99.90;;;;;;5053888;28;20032;-64
2023/11/13 08:55:13;;;;;;;1.63;0.47;;;3.80;99.90;;;;;;5052987;28;20055;-60
2023/11/13 08:57:42;;;;;;;9.00;1.27;;;3.90;99.90;;;;;;5052458;28;20043;-72
2023/11/13 09:00:29;;;;;;;5.03;1.08;;;4.00;99.90;;;;;;5055284;28;20055;-61
2023/11/13 09:02:56;;;;;;;1.20;1.10;;;4.00;99.90;;;;;;5054232;28;20085;-61
2023/11/13 09:05:26;;;;;;;1.02;0.70;;;4.00;99.90;;;;;;5051357;28;20041;-62
2023/11/13 09:07:56;;;;;;;1.83;0.77;;;4.00;99.90;;;;;;5049390;28;20151;-61
2023/11/13 09:10:26;;;;;;;0.52;0.52;;;3.90;99.90;;;;;;5050268;28;20041;-66
2023/11/13 09:12:59;;;;;;;0.70;0.70;;;3.90;99.90;;;;;;5052842;28;20075;-60
2023/11/13 09:15:29;;;;;;;2.25;0.70;;;3.90;99.90;;;;;;5051661;28;20037;-64
2023/11/13 09:18:01;;;;;;;1.63;0.95;;;3.90;99.90;;;;;;5050701;28;20567;-64
2023/11/13 09:20:29;;;;;;;0.52;0.52;;;3.90;99.90;;;;;;5037429;28;20463;-60
2023/11/13 09:22:56;;;;;;;3.65;0.90;;;4.00;99.90;;;;;;5054651;28;20037;-61
2023/11/13 09:25:31;;;;;;;1.02;0.70;;;4.00;99.90;;;;;;5043406;28;20124;-70
2023/11/13 09:27:58;;;;;;;0.85;0.85;;;4.00;99.90;;;;;;5050521;28;20033;-60
2023/11/13 09:30:26;;;;;;;4.88;0.93;;;4.00;99.90;;;;;;5049470;28;20164;-64
2023/11/13 09:32:55;;;;;;;0.95;0.85;;;3.90;99.90;;;;;;5048603;28;20399;-63
2023/11/13 09:35:24;;;;;;;1.13;1.02;;;4.00;99.90;;;;;;5050190;28;20052;-64
2023/11/13 09:37:56;;;;;;;0.70;0.70;;;4.00;99.90;;;;;;5052758;28;20050;-61
2023/11/13 09:40:37;;;;;;;3.08;0.70;;;4.00;99.90;;;;;;5047058;28;20069;-65
2023/11/13 09:43:18;;;;;;;2.60;0.63;;;4.00;99.90;;;;;;5048973;28;20053;-61
2023/11/13 09:45:51;;;;;;;4.00;1.65;;;4.00;99.90;;;;;;5048657;28;20035;-61
2023/11/13 09:48:30;;;;;;;5.07;0.90;;;4.00;99.90;;;;;;5051361;28;20040;-62
2023/11/13 09:50:58;;;;;;;1.75;0.75;;;4.00;99.90;;;;;;5047919;28;20112;-61
2023/11/13 09:53:28;;;;;;;0.88;0.80;;;4.00;99.90;;;;;;5060527;28;20037;-63
2023/11/13 09:55:55;;;;;;;1.08;0.82;;;4.10;99.90;;;;;;5047025;28;20420;-60
2023/11/13 09:58:22;;;;;;;3.22;0.85;;;4.00;99.90;;;;;;5060340;28;20048;-64
2023/11/13 10:00:51;;;;;;;3.10;1.10;;;4.00;99.90;;;;;;5053552;28;20063;-61
2023/11/13 10:03:18;;;;;;;1.02;0.93;;;4.00;99.90;;;;;;5050043;28;20049;-64
2023/11/13 10:05:45;;;;;;;1.90;0.77;;;4.00;99.90;;;;;;5053531;28;20507;-63
2023/11/13 10:08:14;;;;;;;3.33;0.68;;;4.00;99.90;;;;;;5049944;28;20569;-60
2023/11/13 10:10:42;;;;;;;3.55;0.80;;;4.00;99.90;;;;;;5052079;28;20120;-61
2023/11/13 10:13:11;;;;;;;1.58;0.80;;;4.00;99.90;;;;;;5053998;28;20483;-64
2023/11/13 10:15:44;;;;;;;1.00;0.50;;;4.00;99.90;;;;;;5043212;28;20045;-60
2023/11/13 10:18:15;;;;;;;2.45;0.60;;;4.00;99.90;;;;;;5053145;28;20037;-61
2023/11/13 10:20:45;;;;;;;0.88;0.73;;;4.00;99.90;;;;;;5050769;28;20498;-61
2023/11/13 10:23:14;;;;;;;1.48;1.00;;;4.00;99.90;;;;;;5044505;28;20124;-62
2023/11/13 10:25:55;;;;;;;1.38;0.80;;;4.00;99.90;;;;;;5050044;28;20067;-61
2023/11/13 10:28:38;;;;;;;3.33;1.73;;;4.00;99.90;;;;;;5049036;28;20060;-68
2023/11/13 10:31:12;;;;;;;0.88;0.60;;;4.00;99.90;;;;;;5051619;28;20502;-60
2023/11/13 10:33:40;;;;;;;0.65;0.65;;;4.00;99.90;;;;;;5051665;28;20403;-67
2023/11/13 10:36:17;;;;;;;1.05;0.60;;;4.00;99.90;;;;;;5047662;28;20083;-61
2023/11/13 10:38:47;;;;;;;0.77;0.77;;;4.00;99.90;;;;;;5055109;28;20083;-60
2023/11/13 10:41:24;;;;;;;1.10;1.00;;;3.90;99.90;;;;;;5046012;28;20045;-60
2023/11/13 10:43:52;;;;;;;8.18;2.25;;;3.90;99.90;;;;;;5048735;28;20040;-64
2023/11/13 10:46:30;;;;;;;0.80;0.50;;;3.90;99.90;;;;;;5050933;28;20422;-60
2023/11/13 10:48:59;;;;;;;1.90;1.00;;;3.90;99.90;;;;;;5050224;28;20072;-62
2023/11/13 10:51:28;;;;;;;3.13;0.70;;;3.90;99.90;;;;;;5050712;28;20092;-67
2023/11/13 10:53:56;;;;;;;0.82;0.77;;;3.90;99.90;;;;;;5047542;28;20403;-61
2023/11/13 10:56:24;;;;;;;1.95;0.90;;;3.90;99.90;;;;;;5044843;28;20049;-63
2023/11/13 10:58:53;;;;;;;2.55;1.20;;;3.90;99.90;;;;;;5050080;28;20100;-70
2023/11/13 11:01:25;;;;;;;1.10;0.68;;;4.00;99.90;;;;;;5045834;28;20045;-61
2023/11/13 11:04:04;;;;;;;1.08;0.60;;;4.00;99.90;;;;;;5050002;28;20107;-62
2023/11/13 11:06:37;;;;;;;4.40;0.98;;;4.00;99.90;;;;;;5055057;28;20073;-63
2023/11/13 11:09:07;;;;;;;1.85;0.80;;;4.00;99.90;;;;;;5053450;28;20044;-63
2023/11/13 11:11:35;;;;;;;2.17;0.90;;;4.00;99.90;;;;;;5054679;28;20076;-64
2023/11/13 11:14:13;;;;;;;0.70;0.52;;;4.00;99.90;;;;;;5052317;28;20513;-65
2023/11/13 11:16:45;;;;;;;1.23;1.13;;;3.90;99.90;;;;;;5045717;28;20044;-72
2023/11/13 11:19:27;;;;;;;0.60;0.60;;;3.90;99.90;;;;;;5050774;28;20037;-60
2023/11/13 11:22:13;;;;;;;2.65;1.15;;;3.90;99.90;;;;;;5049512;28;20038;-59
2023/11/13 11:25:11;;;;;;;2.90;0.60;;;4.00;99.90;;;;;;5053644;28;20052;-60
2023/11/13 11:27:44;;;;;;;2.45;0.77;;;3.90;99.90;;;;;;5051696;28;20116;-60
2023/11/13 11:30:22;;;;;;;1.33;1.23;;;3.90;99.90;;;;;;5057772;28;20037;-60
2023/11/13 11:32:57;;;;;;;2.70;1.25;;;3.90;99.90;;;;;;5049816;28;20120;-61
2023/11/13 11:35:29;;;;;;;2.78;1.02;;;3.90;99.90;;;;;;5049100;28;20045;-64
2023/11/13 11:38:16;;;;;;;0.80;0.80;;;3.90;99.90;;;;;;5053171;28;20052;-62
2023/11/13 11:40:44;;;;;;;2.70;1.73;;;3.90;99.90;;;;;;5049357;28;20049;-62
2023/11/13 11:43:22;;;;;;;4.35;0.70;;;3.90;99.90;;;;;;5051994;28;20045;-64
2023/11/13 11:45:52;;;;;;;3.35;0.80;;;3.90;99.90;;;;;;5051386;28;20032;-64
2023/11/13 11:48:23;;;;;;;;;;;3.90;99.90;;;;;;5049818;28;20462;-61
2023/11/13 11:51:01;;;;;;;0.82;0.70;;;3.90;99.90;;;;;;5052579;28;20398;-60
2023/11/13 11:53:31;;;;;;;2.70;0.85;;;3.90;99.90;;;;;;5049406;28;20040;-62
2023/11/13 11:55:58;;;;;;;1.67;0.50;;;3.90;99.90;;;;;;5055622;28;20040;-63
2023/11/13 11:58:27;;;;;;;0.95;0.75;;;3.90;99.90;;;;;;5047745;28;20146;-62
2023/11/13 12:00:55;;;;;;;2.72;0.63;;;3.90;99.90;;;;;;5051513;28;20048;-68
2023/11/13 12:03:24;;;;;;;0.82;0.75;;;3.90;99.90;;;;;;5050365;28;20072;-64
2023/11/13 12:05:52;;;;;;;3.13;1.13;;;3.80;99.90;;;;;;5044788;28;20052;-61
2023/11/13 12:08:20;;;;;;;1.35;0.63;;;3.80;99.90;;;;;;5039105;28;20391;-63
2023/11/13 12:10:48;;;;;;;0.50;0.40;;;3.80;99.90;;;;;;5056253;28;20041;-61
2023/11/13 12:13:18;;;;;;;1.58;0.43;;;3.90;99.90;;;;;;5050797;28;20045;-65
2023/11/13 12:15:48;;;;;;;;;;;3.90;99.90;;;;;;5049814;28;20075;-60
2023/11/13 12:18:15;;;;;;;5.38;1.23;;;3.90;99.90;;;;;;5055715;28;20009;-66
2023/11/13 12:20:45;;;;;;;0.70;0.43;;;3.90;99.90;;;;;;5050685;28;20505;-63
2023/11/13 12:23:13;;;;;;;1.02;0.73;;;3.80;99.90;;;;;;5055082;28;20506;-61
2023/11/13 12:25:40;;;;;;;1.45;1.33;;;3.80;99.90;;;;;;5054073;28;20037;-62
2023/11/13 12:28:08;;;;;;;0.60;0.43;;;3.80;99.90;;;;;;5057049;28;20048;-60
2023/11/13 12:30:35;;;;;;;5.07;0.77;;;3.80;99.90;;;;;;5049008;28;20041;-62
2023/11/13 12:33:03;;;;;;;2.70;0.60;;;3.80;99.90;;;;;;5050887;28;20446;-60
2023/11/13 12:35:33;;;;;;;6.97;0.90;;;3.80;99.90;;;;;;5051224;28;20076;-61
2023/11/13 12:38:04;;;;;;;0.70;0.50;;;3.80;99.90;;;;;;5052122;28;20495;-65
2023/11/13 12:40:33;;;;;;;3.05;0.82;;;3.80;99.90;;;;;;5049988;28;20120;-60
2023/11/13 12:43:00;;;;;;;2.08;0.68;;;3.80;99.90;;;;;;5051369;28;20043;-62
2023/11/13 12:45:31;;;;;;;2.35;1.20;;;3.80;99.90;;;;;;5051076;28;20128;-61
2023/11/13 12:48:00;;;;;;;1.92;1.05;;;3.80;99.90;;;;;;5051992;28;20490;-59
2023/11/13 12:50:27;;;;;;;1.50;1.00;;;3.70;99.90;;;;;;5051099;28;20499;-62
2023/11/13 12:52:54;;;;;;;1.40;1.30;;;3.70;99.90;;;;;;5049537;28;20040;-62
2023/11/13 12:55:23;;;;;;;2.08;0.70;;;3.70;99.90;;;;;;5051499;28;20041;-61
2023/11/13 12:57:53;;;;;;;1.58;0.73;;;3.70;99.90;;;;;;5047774;28;20037;-59
2023/11/13 13:00:21;;;;;;;2.05;0.70;;;3.70;99.90;;;;;;5049476;28;20033;-70
2023/11/13 13:02:49;;;;;;;1.52;0.68;;;3.70;99.90;;;;;;5052619;28;20387;-59
2023/11/13 13:05:17;;;;;;;1.90;0.95;;;3.80;99.90;;;;;;5047802;28;20049;-66
2023/11/13 13:07:58;;;;;;;2.67;0.65;;;3.80;99.90;;;;;;5049115;28;20037;-59